Time;durP1;ratioP1;P1;durP2;ratioP2;P2;SDS_P1;SDS_P2;PMS_P1;PMS_P2;Temp;Humidity;BMP_temperature;BMP_pressure;BME280_temperature;BME280_humidity;BME280_pressure;Samples;Min_cycle;Max_cycle;Signal;HPM_P1;HPM_P2
2023/02/26 00:00:00;;;;;;;;;;;;;;;-0.30;91.10;101749.97;10402525;28;19925;-64
2023/02/26 00:05:03;;;;;;;;;;;;;;;-0.06;92.23;101761.19;10399667;28;19933;-63
2023/02/26 00:10:06;;;;;;;;;;;;;;;-0.40;92.65;101758.53;10401853;28;19936;-64
2023/02/26 00:15:11;;;;;;;;;;;;;;;-0.25;93.10;101756.00;10401232;28;19925;-63
2023/02/26 00:20:15;;;;;;;;;;;;;;;-0.39;91.54;101768.81;10417874;28;19925;-63
2023/02/26 00:25:17;;;;;;;;;;;;;;;-0.23;91.37;101772.28;10401864;28;19971;-63
2023/02/26 00:30:20;;;;;;;;;;;;;;;-0.50;92.50;101785.94;10418284;28;19925;-64
2023/02/26 00:35:22;;;;;;;;;;;;;;;-0.16;92.57;101800.63;10400633;28;19929;-64
2023/02/26 00:40:24;;;;;;;;;;;;;;;-0.06;93.36;101797.22;10414811;28;19933;-63
2023/02/26 00:45:27;;;;;;;;;;;;;;;0.02;94.37;101811.00;10418317;28;19929;-64
2023/02/26 00:50:29;;;;;;;;;;;;;;;-0.06;94.20;101826.41;10416980;28;19925;-64
2023/02/26 00:55:31;;;;;;;;;;;;;;;0.01;94.06;101819.56;10415846;28;20444;-64
2023/02/26 01:00:34;;;;;;;;;;;;;;;-0.11;93.58;101812.66;10417090;28;19929;-64
2023/02/26 01:05:36;;;;;;;;;;;;;;;-0.22;93.02;101809.19;10416520;28;19982;-63
2023/02/26 01:10:39;;;;;;;;;;;;;;;-0.19;94.04;101822.91;10416692;28;20023;-63
2023/02/26 01:15:42;;;;;;;;;;;;;;;-0.33;94.92;101816.88;10398316;28;19940;-63
2023/02/26 01:20:46;;;;;;;;;;;;;;;-0.34;95.42;101819.44;10416003;28;19932;-63
2023/02/26 01:25:58;;;;;;;;;;;;;;;-0.43;94.61;101823.69;10399404;28;19952;-64
2023/02/26 01:31:03;;;;;;;;;;;;;;;-0.41;94.90;101823.69;10397867;28;20276;-64
2023/02/26 01:36:07;;;;;;;;;;;;;;;-0.28;93.59;101825.47;10399015;28;20451;-64
2023/02/26 01:41:09;;;;;;;;;;;;;;;-0.54;94.28;101825.34;10398327;28;19932;-64
2023/02/26 01:46:16;;;;;;;;;;;;;;;-0.58;94.38;101834.75;10416339;28;19925;-64
2023/02/26 01:51:36;;;;;;;;;;;;;;;-0.52;96.12;101833.94;10398261;28;20038;-64
2023/02/26 01:56:38;;;;;;;;;;;;;;;-0.44;94.88;101846.84;10398022;28;20008;-63
2023/02/26 02:01:41;;;;;;;;;;;;;;;-0.48;93.12;101845.09;10397817;28;19975;-63
2023/02/26 02:06:43;;;;;;;;;;;;;;;-0.44;93.30;101842.56;10396392;28;19932;-63
2023/02/26 02:12:06;;;;;;;;;;;;;;;-0.25;92.27;101851.22;10415126;28;19951;-64
2023/02/26 02:17:13;;;;;;;;;;;;;;;-0.40;90.57;101858.88;10414525;28;19933;-63
2023/02/26 02:22:34;;;;;;;;;;;;;;;-0.51;89.55;101863.09;10413811;28;19952;-64
2023/02/26 02:27:40;;;;;;;;;;;;;;;-0.58;89.57;101875.06;10395531;28;19925;-64
2023/02/26 02:32:50;;;;;;;;;;;;;;;-0.54;88.34;101881.94;10421655;28;19932;-63
2023/02/26 02:37:57;;;;;;;;;;;;;;;-0.56;89.64;101893.94;10405773;28;19977;-63
2023/02/26 02:43:03;;;;;;;;;;;;;;;-0.44;89.41;101901.75;10422030;28;19925;-63
2023/02/26 02:48:26;;;;;;;;;;;;;;;-0.80;89.95;101900.63;10389178;28;19956;-63
2023/02/26 02:53:31;;;;;;;;;;;;;;;-0.68;89.64;101906.72;10421990;28;19928;-64
2023/02/26 02:58:36;;;;;;;;;;;;;;;-0.98;90.04;101921.91;10403916;28;19932;-64
2023/02/26 03:03:57;;;;;;;;;;;;;;;-0.81;89.24;101916.94;10386435;28;20380;-63
2023/02/26 03:09:00;;;;;;;;;;;;;;;-0.65;91.26;101930.75;10422033;28;19925;-63
2023/02/26 03:14:02;;;;;;;;;;;;;;;-0.70;90.28;101931.59;10421237;28;19929;-63
2023/02/26 03:19:09;;;;;;;;;;;;;;;-0.94;91.38;101940.81;10420210;28;19941;-63
2023/02/26 03:24:18;;;;;;;;;;;;;;;-1.10;91.12;101938.97;10402759;28;19972;-64
2023/02/26 03:29:20;;;;;;;;;;;;;;;-0.98;92.57;101944.19;10403192;28;19925;-63
2023/02/26 03:34:34;;;;;;;;;;;;;;;-0.90;92.21;101954.56;10419291;28;19932;-64
2023/02/26 03:39:37;;;;;;;;;;;;;;;-1.24;91.70;101961.97;10402532;28;19929;-63
2023/02/26 03:44:42;;;;;;;;;;;;;;;-1.10;93.27;101967.22;10418823;28;19925;-64
2023/02/26 03:50:16;;;;;;;;;;;;;;;-1.09;92.11;101971.50;10420477;28;19925;-64
2023/02/26 03:55:24;;;;;;;;;;;;;;;-1.41;93.11;101974.59;10366278;28;19971;-63
2023/02/26 04:00:27;;;;;;;;;;;;;;;-1.44;94.14;101980.59;10399515;28;20300;-63
2023/02/26 04:05:32;;;;;;;;;;;;;;;-1.46;92.60;101986.53;10418250;28;19925;-63
2023/02/26 04:10:43;;;;;;;;;;;;;;;-1.47;93.58;101990.81;10402094;28;19975;-63
2023/02/26 04:15:45;;;;;;;;;;;;;;;-1.60;92.82;101999.22;10400356;28;19971;-63
2023/02/26 04:20:48;;;;;;;;;;;;;;;-1.47;93.51;102011.38;10418722;28;20304;-63
2023/02/26 04:25:50;;;;;;;;;;;;;;;-1.52;92.19;102016.44;10399493;28;19925;-64
2023/02/26 04:30:52;;;;;;;;;;;;;;;-1.46;91.37;102015.69;10418301;28;19933;-63
2023/02/26 04:35:55;;;;;;;;;;;;;;;-1.62;90.86;102035.16;10417953;28;19983;-64
2023/02/26 04:40:57;;;;;;;;;;;;;;;-1.60;92.19;102041.16;10416388;28;20372;-63
2023/02/26 04:45:59;;;;;;;;;;;;;;;-1.56;90.34;102036.97;10418355;28;19932;-63
2023/02/26 04:51:01;;;;;;;;;;;;;;;-1.67;90.21;102052.22;10418030;28;19960;-63
2023/02/26 04:56:04;;;;;;;;;;;;;;;-1.59;91.06;102052.31;10416645;28;19972;-63
2023/02/26 05:01:06;;;;;;;;;;;;;;;-1.72;89.04;102056.41;10398944;28;19933;-63
2023/02/26 05:06:08;;;;;;;;;;;;;;;-1.66;89.02;102071.03;10400247;28;19926;-62
2023/02/26 05:11:11;;;;;;;;;;;;;;;-1.62;89.35;102072.81;10416670;28;19925;-63
2023/02/26 05:16:13;;;;;;;;;;;;;;;-1.59;90.30;102073.72;10398147;28;19926;-63
2023/02/26 05:21:16;;;;;;;;;;;;;;;-1.69;89.80;102083.00;10383383;28;19976;-63
2023/02/26 05:26:18;;;;;;;;;;;;;;;-1.75;88.58;102082.94;10416779;28;19972;-63
2023/02/26 05:31:20;;;;;;;;;;;;;;;-1.50;87.59;102096.09;10414585;28;19990;-63
2023/02/26 05:36:22;;;;;;;;;;;;;;;-1.82;87.07;102087.94;10416006;28;20404;-63
2023/02/26 05:41:25;;;;;;;;;;;;;;;-1.67;87.69;102103.56;10415741;28;20287;-63
2023/02/26 05:46:27;;;;;;;;;;;;;;;-1.80;87.75;102106.81;10414973;28;19925;-62
2023/02/26 05:51:30;;;;;;;;;;;;;;;-1.74;88.21;102106.91;10415129;28;19925;-63
2023/02/26 05:56:32;;;;;;;;;;;;;;;-1.73;86.58;102122.34;10414777;28;19925;-64
2023/02/26 06:01:36;;;;;;;;;;;;;;;-1.69;88.56;102121.53;10416037;28;19932;-63
2023/02/26 06:06:38;;;;;;;;;;;;;;;-1.82;88.49;102132.44;10403888;28;20015;-63
2023/02/26 06:11:40;;;;;;;;;;;;;;;-1.58;88.46;102136.22;10423276;28;19929;-63
2023/02/26 06:16:42;;;;;;;;;;;;;;;-1.80;87.97;102145.31;10405972;28;19925;-63
2023/02/26 06:21:45;;;;;;;;;;;;;;;-1.82;88.13;102155.56;10423980;28;19931;-63
2023/02/26 06:26:48;;;;;;;;;;;;;;;-1.65;88.84;102152.38;10422416;28;19940;-63
2023/02/26 06:31:50;;;;;;;;;;;;;;;-1.67;88.65;102160.06;10422588;28;19925;-64
2023/02/26 06:36:52;;;;;;;;;;;;;;;-1.64;88.55;102175.53;10423368;28;19925;-63
2023/02/26 06:41:54;;;;;;;;;;;;;;;-1.85;89.31;102182.91;10421669;28;20399;-63
2023/02/26 06:46:57;;;;;;;;;;;;;;;-1.72;89.94;102195.94;10422409;28;20269;-63
2023/02/26 06:51:59;;;;;;;;;;;;;;;-1.69;88.90;102198.56;10421066;28;19930;-63
2023/02/26 06:57:02;;;;;;;;;;;;;;;-1.59;89.86;102211.56;10422639;28;19925;-63
2023/02/26 07:02:04;;;;;;;;;;;;;;;-1.73;89.90;102221.59;10421965;28;19925;-63
2023/02/26 07:07:06;;;;;;;;;;;;;;;-1.49;89.89;102223.72;10422257;28;19929;-63
2023/02/26 07:12:08;;;;;;;;;;;;;;;-1.45;90.20;102242.59;10404632;28;19932;-64
2023/02/26 07:17:19;;;;;;;;;;;;;;;-1.31;91.28;102259.97;10390247;28;19932;-63
2023/02/26 07:22:22;;;;;;;;;;;;;;;-1.15;90.08;102268.75;10420661;28;19932;-64
2023/02/26 07:27:24;;;;;;;;;;;;;;;-0.98;88.88;102281.00;10421423;28;19961;-63
2023/02/26 07:32:27;;;;;;;;;;;;;;;-0.29;87.16;102293.88;10421210;28;19972;-64
2023/02/26 07:37:29;;;;;;;;;;;;;;;-0.25;86.90;102290.53;10380131;28;20407;-64
2023/02/26 07:42:31;;;;;;;;;;;;;;;0.10;84.54;102302.88;10405582;28;20442;-64
2023/02/26 07:47:33;;;;;;;;;;;;;;;0.52;82.38;102288.66;10420753;28;19979;-64
2023/02/26 07:52:36;;;;;;;;;;;;;;;1.16;82.17;102292.56;10419740;28;19929;-64
2023/02/26 07:57:38;;;;;;;;;;;;;;;1.31;81.06;102297.78;10422680;28;19925;-64
2023/02/26 08:02:40;;;;;;;;;;;;;;;1.52;81.17;102297.03;10420107;28;19979;-64
2023/02/26 08:07:42;;;;;;;;;;;;;;;1.92;80.95;102294.59;10419687;28;19976;-64
2023/02/26 08:12:45;;;;;;;;;;;;;;;2.42;79.35;102304.16;10420788;28;19925;-63
2023/02/26 08:17:47;;;;;;;;;;;;;;;2.46;77.25;102306.75;10429244;28;19925;-64
2023/02/26 08:22:49;;;;;;;;;;;;;;;3.05;78.00;102323.09;10418181;28;19925;-64
2023/02/26 08:27:51;;;;;;;;;;;;;;;3.46;76.07;102316.94;10401002;28;19929;-64
2023/02/26 08:32:54;;;;;;;;;;;;;;;3.22;74.28;102336.00;10417598;28;19932;-64
2023/02/26 08:37:56;;;;;;;;;;;;;;;4.01;72.94;102341.75;10417726;28;19979;-64
2023/02/26 08:42:58;;;;;;;;;;;;;;;4.40;72.79;102350.16;10415915;28;19925;-64
2023/02/26 08:48:01;;;;;;;;;;;;;;;4.93;72.01;102368.81;10450538;28;20435;-65
2023/02/26 08:53:03;;;;;;;;;;;;;;;4.96;68.77;102371.34;10423986;28;19925;-63
2023/02/26 08:58:06;;;;;;;;;;;;;;;5.81;69.01;102373.94;10417962;28;19925;-63
2023/02/26 09:03:08;;;;;;;;;;;;;;;5.79;67.87;102383.50;10418738;28;19941;-63
2023/02/26 09:08:14;;;;;;;;;;;;;;;6.31;67.05;102382.00;10416951;28;19925;-62
2023/02/26 09:13:16;;;;;;;;;;;;;;;7.85;64.29;102392.38;10417981;28;19936;-63
2023/02/26 09:18:18;;;;;;;;;;;;;;;7.24;63.36;102397.84;10417359;28;19929;-63
2023/02/26 09:23:20;;;;;;;;;;;;;;;7.42;63.72;102408.84;10417055;28;19952;-63
2023/02/26 09:28:23;;;;;;;;;;;;;;;7.84;62.58;102421.09;10417802;28;19925;-63
2023/02/26 09:33:25;;;;;;;;;;;;;;;8.63;60.28;102417.66;10375280;28;19932;-63
2023/02/26 09:38:27;;;;;;;;;;;;;;;8.03;57.63;102419.78;10374829;28;19926;-63
2023/02/26 09:43:33;;;;;;;;;;;;;;;10.00;59.53;102419.31;10379962;28;20431;-63
2023/02/26 09:48:35;;;;;;;;;;;;;;;10.18;53.41;102428.38;10349139;28;19981;-63
2023/02/26 09:53:39;;;;;;;;;;;;;;;10.53;54.38;102440.44;10334718;28;19932;-63
2023/02/26 09:58:42;;;;;;;;;;;;;;;10.19;52.41;102437.97;10332974;28;20382;-63
2023/02/26 10:04:03;;;;;;;;;;;;;;;11.48;51.51;102441.72;10366879;28;19932;-63
2023/02/26 10:09:24;;;;;;;;;;;;;;;10.82;49.50;102449.13;10357069;28;19926;-63
2023/02/26 10:14:27;;;;;;;;;;;;;;;10.64;48.95;102457.59;10374681;28;19963;-63
2023/02/26 10:19:29;;;;;;;;;;;;;;;12.77;49.34;102457.03;10374185;28;19930;-63
2023/02/26 10:24:35;;;;;;;;;;;;;;;12.16;44.86;102462.91;10371948;28;19980;-67
2023/02/26 10:29:57;;;;;;;;;;;;;;;12.78;45.07;102460.53;10384523;28;19929;-63
2023/02/26 10:35:00;;;;;;;;;;;;;;;12.83;45.01;102469.94;10415502;28;19929;-66
2023/02/26 10:40:25;;;;;;;;;;;;;;;13.55;42.62;102483.66;10395601;28;19926;-66
2023/02/26 10:45:32;;;;;;;;;;;;;;;13.43;41.79;102471.03;10371815;23;19929;-65
2023/02/26 10:50:34;;;;;;;;;;;;;;;13.73;41.11;102471.47;10358404;28;19925;-66
2023/02/26 10:55:56;;;;;;;;;;;;;;;15.07;40.84;102481.06;10381888;28;20041;-65
2023/02/26 11:00:59;;;;;;;;;;;;;;;14.56;41.93;102483.50;10366781;28;19975;-65
2023/02/26 11:06:04;;;;;;;;;;;;;;;14.89;39.37;102476.69;10380873;28;19961;-65
2023/02/26 11:11:06;;;;;;;;;;;;;;;13.24;39.73;102478.81;10363538;28;19991;-65
2023/02/26 11:16:15;;;;;;;;;;;;;;;13.71;41.82;102481.22;10381770;28;19934;-65
2023/02/26 11:21:24;;;;;;;;;;;;;;;12.97;38.72;102479.03;10345091;28;20327;-65
2023/02/26 11:26:30;;;;;;;;;;;;;;;15.03;39.87;102475.09;10362822;28;19971;-65
2023/02/26 11:31:32;;;;;;;;;;;;;;;17.73;36.59;102462.06;10364195;28;20328;-65
2023/02/26 11:36:36;;;;;;;;;;;;;;;15.84;38.28;102481.59;10381410;28;19932;-65
2023/02/26 11:41:38;;;;;;;;;;;;;;;16.23;37.69;102472.47;10362676;28;19962;-65
2023/02/26 11:46:43;;;;;;;;;;;;;;;18.10;34.91;102463.28;10361886;28;19925;-65
2023/02/26 11:51:47;;;;;;;;;;;;;;;17.70;36.93;102467.53;10366395;28;19926;-65
2023/02/26 11:56:49;;;;;;;;;;;;;;;16.74;36.40;102470.47;10379508;28;19930;-66
2023/02/26 12:01:52;;;;;;;;;;;;;;;17.91;35.06;102455.66;10377091;28;19925;-66
2023/02/26 12:06:54;;;;;;;;;;;;;;;18.27;34.33;102448.97;10379167;28;19932;-65
2023/02/26 12:11:56;;;;;;;;;;;;;;;16.98;33.97;102443.56;10382019;28;19979;-66
2023/02/26 12:17:12;;;;;;;;;;;;;;;17.66;34.59;102452.78;10378085;28;20437;-66
2023/02/26 12:22:22;;;;;;;;;;;;;;;16.52;34.14;102449.69;10360858;28;19925;-66
2023/02/26 12:27:34;;;;;;;;;;;;;;;15.31;37.07;102454.38;10361011;28;19942;-66
2023/02/26 12:32:52;;;;;;;;;;;;;;;18.20;34.51;102445.84;10362618;28;19926;-66
2023/02/26 12:37:59;;;;;;;;;;;;;;;16.59;33.92;102447.56;10360637;28;19929;-66
2023/02/26 12:43:04;;;;;;;;;;;;;;;15.51;34.88;102450.72;10359886;28;19933;-65
2023/02/26 12:48:16;;;;;;;;;;;;;;;17.45;33.97;102437.28;10362222;28;19980;-66
2023/02/26 12:53:18;;;;;;;;;;;;;;;17.91;34.18;102428.31;10375990;28;19926;-66
2023/02/26 12:58:26;;;;;;;;;;;;;;;17.59;34.81;102433.78;10376607;28;19974;-66
2023/02/26 13:03:34;;;;;;;;;;;;;;;17.97;33.57;102435.88;10376950;28;19929;-65
2023/02/26 13:08:39;;;;;;;;;;;;;;;17.77;32.98;102429.13;10376883;28;19925;-65
2023/02/26 13:13:48;;;;;;;;;;;;;;;18.05;34.06;102436.22;10376412;28;19925;-65
2023/02/26 13:19:20;;;;;;;;;;;;;;;18.43;34.51;102434.75;10358564;28;19940;-65
2023/02/26 13:24:27;;;;;;;;;;;;;;;18.77;33.10;102436.03;10362886;28;19925;-65
2023/02/26 13:29:36;;;;;;;;;;;;;;;17.51;32.41;102436.88;10362297;28;20373;-65
2023/02/26 13:34:49;;;;;;;;;;;;;;;17.47;35.10;102430.09;10375291;28;20376;-65
2023/02/26 13:39:51;;;;;;;;;;;;;;;18.10;32.17;102430.66;10388378;28;20415;-64
2023/02/26 13:45:02;;;;;;;;;;;;;;;19.42;32.07;102427.25;10414520;28;19932;-65
2023/02/26 13:50:11;;;;;;;;;;;;;;;19.11;30.64;102426.69;10358365;28;19976;-65
2023/02/26 13:55:33;;;;;;;;;;;;;;;18.65;29.77;102434.19;10358151;28;19926;-65
2023/02/26 14:00:36;;;;;;;;;;;;;;;20.16;29.41;102435.34;10374759;28;19929;-65
2023/02/26 14:05:45;;;;;;;;;;;;;;;20.51;28.21;102434.59;10360762;28;20496;-65
2023/02/26 14:10:55;;;;;;;;;;;;;;;22.71;27.33;102432.56;10375033;28;19934;-65
2023/02/26 14:16:02;;;;;;;;;;;;;;;20.65;28.18;102430.09;10375008;28;19925;-65
2023/02/26 14:21:23;;;;;;;;;;;;;;;23.60;25.98;102420.59;10359464;28;19926;-65
2023/02/26 14:26:27;;;;;;;;;;;;;;;23.91;25.68;102422.28;10378558;28;19932;-64
2023/02/26 14:31:46;;;;;;;;;;;;;;;24.87;24.98;102420.88;10384613;28;19972;-64
2023/02/26 14:36:52;;;;;;;;;;;;;;;24.88;23.88;102420.72;10405397;28;20311;-64
2023/02/26 14:41:56;;;;;;;;;;;;;;;22.95;24.33;102421.63;10405239;28;20327;-64
2023/02/26 14:46:59;;;;;;;;;;;;;;;18.19;29.71;102435.38;10398437;28;19925;-64
2023/02/26 14:52:20;;;;;;;;;;;;;;;21.76;25.55;102429.59;10380269;28;20331;-64
2023/02/26 14:57:46;;;;;;;;;;;;;;;25.70;24.12;102421.06;10381189;28;19925;-64
2023/02/26 15:03:03;;;;;;;;;;;;;;;24.42;23.76;102432.94;10383622;28;19932;-64
2023/02/26 15:08:28;;;;;;;;;;;;;;;28.15;22.89;102418.56;10381497;28;19925;-65
2023/02/26 15:13:33;;;;;;;;;;;;;;;21.57;25.39;102423.06;10366242;28;20359;-64
2023/02/26 15:18:48;;;;;;;;;;;;;;;17.24;32.78;102434.94;10381110;28;19925;-64
2023/02/26 15:23:51;;;;;;;;;;;;;;;14.77;33.71;102446.50;10381932;28;19933;-64
2023/02/26 15:28:53;;;;;;;;;;;;;;;14.00;35.13;102444.81;10383588;28;19925;-63
2023/02/26 15:33:56;;;;;;;;;;;;;;;13.53;36.51;102449.53;10362902;28;19932;-63
2023/02/26 15:38:59;;;;;;;;;;;;;;;13.85;35.97;102446.38;10363717;28;20114;-63
2023/02/26 15:44:06;;;;;;;;;;;;;;;13.84;37.83;102456.06;10379451;28;19926;-63
2023/02/26 15:49:10;;;;;;;;;;;;;;;14.06;36.02;102463.00;10364147;28;20290;-63
2023/02/26 15:54:14;;;;;;;;;;;;;;;12.88;35.90;102466.25;10361390;28;19925;-63
2023/02/26 15:59:19;;;;;;;;;;;;;;;9.64;41.69;102482.22;10379689;28;19933;-63
2023/02/26 16:04:21;;;;;;;;;;;;;;;9.12;45.24;102484.41;10365070;28;19926;-63
2023/02/26 16:09:27;;;;;;;;;;;;;;;7.77;47.80;102489.00;10401000;28;19940;-63
2023/02/26 16:14:30;;;;;;;;;;;;;;;7.37;49.39;102488.84;10418271;28;19929;-62
2023/02/26 16:19:43;;;;;;;;;;;;;;;6.96;50.31;102480.81;10400098;28;20368;-62
2023/02/26 16:24:46;;;;;;;;;;;;;;;6.97;51.03;102481.66;10401036;28;19933;-65
2023/02/26 16:29:49;;;;;;;;;;;;;;;6.68;51.58;102488.16;10419247;28;19952;-65
2023/02/26 16:34:56;;;;;;;;;;;;;;;6.28;52.97;102496.47;10401001;28;20220;-65
2023/02/26 16:40:18;;;;;;;;;;;;;;;6.14;53.98;102502.72;10401516;28;19925;-64
2023/02/26 16:45:36;;;;;;;;;;;;;;;5.83;54.95;102504.72;10412192;28;20331;-64
2023/02/26 16:50:38;;;;;;;;;;;;;;;5.71;56.32;102512.66;10376438;28;20270;-64
2023/02/26 16:55:40;;;;;;;;;;;;;;;5.31;57.13;102518.19;10376610;28;19929;-64
2023/02/26 17:00:43;;;;;;;;;;;;;;;5.22;57.44;102532.13;10379549;28;19925;-64
2023/02/26 17:05:55;;;;;;;;;;;;;;;4.95;58.74;102538.38;10403142;28;19925;-64
2023/02/26 17:11:01;;;;;;;;;;;;;;;4.64;59.26;102546.31;10380955;28;20381;-64
2023/02/26 17:16:06;;;;;;;;;;;;;;;4.30;60.66;102551.63;10358276;28;20296;-64
2023/02/26 17:21:08;;;;;;;;;;;;;;;4.26;60.57;102557.69;10358784;28;20376;-64
2023/02/26 17:26:11;;;;;;;;;;;;;;;4.03;62.31;102558.59;10375660;28;20002;-64
2023/02/26 17:31:14;;;;;;;;;;;;;;;3.74;62.59;102562.97;10376240;28;19932;-64
2023/02/26 17:36:19;;;;;;;;;;;;;;;3.67;62.04;102570.72;10376662;28;19965;-64
2023/02/26 17:41:21;;;;;;;;;;;;;;;3.52;64.28;102578.50;10375396;28;19925;-64
2023/02/26 17:46:23;;;;;;;;;;;;;;;3.54;63.58;102579.38;10373887;28;19976;-64
2023/02/26 17:51:26;;;;;;;;;;;;;;;3.35;64.49;102588.84;10386369;28;19988;-64
2023/02/26 17:56:29;;;;;;;;;;;;;;;3.20;65.92;102583.66;10374658;28;19926;-64
2023/02/26 18:01:31;;;;;;;;;;;;;;;3.25;66.10;102598.31;10362694;28;20392;-64
2023/02/26 18:06:35;;;;;;;;;;;;;;;2.98;66.78;102605.16;10374956;28;19941;-65
2023/02/26 18:11:37;;;;;;;;;;;;;;;3.21;66.86;102606.97;10357495;28;20288;-65
2023/02/26 18:16:40;;;;;;;;;;;;;;;3.20;66.39;102607.81;10381173;28;19934;-64
2023/02/26 18:21:42;;;;;;;;;;;;;;;2.91;67.50;102621.53;10391104;28;19925;-64
2023/02/26 18:26:44;;;;;;;;;;;;;;;2.72;68.71;102614.53;10374846;28;19934;-64
2023/02/26 18:31:47;;;;;;;;;;;;;;;2.99;68.29;102613.78;10374742;28;19997;-64
2023/02/26 18:36:49;;;;;;;;;;;;;;;2.62;69.08;102617.94;10374684;28;20020;-64
2023/02/26 18:41:51;;;;;;;;;;;;;;;2.46;68.69;102620.44;10373817;28;19995;-65
2023/02/26 18:46:54;;;;;;;;;;;;;;;2.69;70.23;102627.44;10377752;28;20300;-64
2023/02/26 18:51:57;;;;;;;;;;;;;;;2.78;70.09;102633.53;10377375;28;20560;-64
2023/02/26 18:57:00;;;;;;;;;;;;;;;2.68;69.64;102638.66;10373337;28;20280;-64
2023/02/26 19:02:02;;;;;;;;;;;;;;;2.52;70.29;102641.19;10376227;28;19929;-64
2023/02/26 19:07:05;;;;;;;;;;;;;;;2.61;69.22;102645.53;10357778;28;19926;-64
2023/02/26 19:12:07;;;;;;;;;;;;;;;2.41;69.72;102642.81;10359508;28;19956;-64
2023/02/26 19:17:12;;;;;;;;;;;;;;;2.56;71.52;102648.09;10367591;28;19929;-64
2023/02/26 19:22:14;;;;;;;;;;;;;;;2.26;71.62;102653.91;10382507;28;20396;-64
2023/02/26 19:27:17;;;;;;;;;;;;;;;2.16;71.77;102665.06;10383597;28;19926;-64
2023/02/26 19:32:19;;;;;;;;;;;;;;;2.04;72.90;102666.69;10377164;28;19980;-64
2023/02/26 19:37:21;;;;;;;;;;;;;;;1.91;73.32;102671.75;10361120;28;19932;-65
2023/02/26 19:42:27;;;;;;;;;;;;;;;2.04;73.90;102668.41;10381068;28;19925;-64
2023/02/26 19:47:29;;;;;;;;;;;;;;;1.85;74.15;102680.31;10382023;28;19929;-64
2023/02/26 19:52:32;;;;;;;;;;;;;;;2.08;73.02;102677.91;10366309;28;19958;-64
2023/02/26 19:57:35;;;;;;;;;;;;;;;1.65;72.89;102675.81;10382117;28;19933;-64
2023/02/26 20:02:38;;;;;;;;;;;;;;;1.79;73.89;102685.41;10378703;28;19925;-64
2023/02/26 20:07:40;;;;;;;;;;;;;;;1.62;74.33;102691.25;10379384;28;19930;-64
2023/02/26 20:12:42;;;;;;;;;;;;;;;1.58;74.49;102701.53;10379402;28;20335;-64
2023/02/26 20:17:45;;;;;;;;;;;;;;;1.43;75.78;102694.50;10381081;28;19926;-64
2023/02/26 20:22:47;;;;;;;;;;;;;;;1.44;75.31;102699.66;10375169;28;19925;-64
2023/02/26 20:27:50;;;;;;;;;;;;;;;1.36;76.33;102713.34;10383839;28;20371;-64
2023/02/26 20:32:52;;;;;;;;;;;;;;;1.04;75.84;102716.38;10379909;28;19984;-64
2023/02/26 20:37:55;;;;;;;;;;;;;;;1.09;76.93;102715.63;10377615;28;19926;-64
2023/02/26 20:42:57;;;;;;;;;;;;;;;1.33;75.47;102708.13;10377365;28;19932;-64
2023/02/26 20:48:00;;;;;;;;;;;;;;;1.05;75.98;102715.56;10379309;28;19929;-64
2023/02/26 20:53:02;;;;;;;;;;;;;;;0.84;78.38;102723.84;10377173;28;19925;-64
2023/02/26 20:58:05;;;;;;;;;;;;;;;0.87;77.72;102727.34;10380710;28;19925;-64
2023/02/26 21:03:07;;;;;;;;;;;;;;;0.85;78.44;102726.47;10377068;28;19980;-64
2023/02/26 21:08:09;;;;;;;;;;;;;;;0.67;78.80;102729.66;10361743;28;19929;-64
2023/02/26 21:13:12;;;;;;;;;;;;;;;0.93;77.29;102726.59;10376249;28;20735;-64
2023/02/26 21:18:14;;;;;;;;;;;;;;;0.83;77.56;102733.31;10378472;28;19925;-64
2023/02/26 21:23:17;;;;;;;;;;;;;;;0.71;76.94;102730.56;10376304;28;19937;-64
2023/02/26 21:28:19;;;;;;;;;;;;;;;0.84;77.07;102734.16;10379663;28;19925;-64
2023/02/26 21:33:21;;;;;;;;;;;;;;;0.52;78.41;102734.56;10377545;28;19933;-64
2023/02/26 21:38:24;;;;;;;;;;;;;;;0.36;79.20;102749.78;10375743;28;19972;-64
2023/02/26 21:43:26;;;;;;;;;;;;;;;0.46;79.55;102757.69;10377270;28;19934;-64
2023/02/26 21:48:28;;;;;;;;;;;;;;;0.58;78.57;102760.44;10375065;28;19932;-64
2023/02/26 21:53:30;;;;;;;;;;;;;;;0.49;80.02;102766.31;10375433;28;19983;-64
2023/02/26 21:58:32;;;;;;;;;;;;;;;0.27;80.81;102769.38;10377578;28;19936;-64
2023/02/26 22:03:35;;;;;;;;;;;;;;;0.30;81.86;102762.59;10375376;28;19933;-64
2023/02/26 22:08:37;;;;;;;;;;;;;;;0.25;81.88;102753.88;10375016;28;19972;-64
2023/02/26 22:13:40;;;;;;;;;;;;;;;0.46;80.82;102760.25;10375163;28;19929;-64
2023/02/26 22:18:42;;;;;;;;;;;;;;;0.28;81.84;102761.66;10335740;28;20349;-64
2023/02/26 22:23:44;;;;;;;;;;;;;;;0.31;81.62;102755.72;10356684;28;19933;-64
2023/02/26 22:28:46;;;;;;;;;;;;;;;0.14;81.56;102756.28;10373513;28;19971;-64
2023/02/26 22:33:48;;;;;;;;;;;;;;;0.22;81.47;102753.88;10373811;28;19971;-64
2023/02/26 22:38:51;;;;;;;;;;;;;;;0.33;82.30;102767.78;10374648;28;19933;-64
2023/02/26 22:43:53;;;;;;;;;;;;;;;0.07;83.94;102769.91;10373954;28;19925;-64
2023/02/26 22:48:56;;;;;;;;;;;;;;;-0.06;83.12;102757.66;10379602;28;20446;-64
2023/02/26 22:53:58;;;;;;;;;;;;;;;-0.39;84.23;102767.34;10382003;28;19932;-64
2023/02/26 22:59:01;;;;;;;;;;;;;;;-0.12;83.97;102767.84;10371963;23;19976;-67
2023/02/26 23:04:03;;;;;;;;;;;;;;;-0.16;83.59;102764.34;10396738;28;19925;-67
2023/02/26 23:09:06;;;;;;;;;;;;;;;-0.25;85.06;102777.91;10422506;28;19925;-67
2023/02/26 23:14:08;;;;;;;;;;;;;;;-0.39;85.26;102781.91;10421500;28;20273;-67
2023/02/26 23:19:10;;;;;;;;;;;;;;;-0.75;84.87;102783.75;10419828;28;20295;-67
2023/02/26 23:24:12;;;;;;;;;;;;;;;-0.40;86.11;102785.34;10421908;28;19936;-67
2023/02/26 23:29:15;;;;;;;;;;;;;;;-0.63;84.49;102780.56;10420250;28;19933;-67
2023/02/26 23:34:17;;;;;;;;;;;;;;;-0.63;86.94;102790.00;10419824;28;19995;-67
2023/02/26 23:39:19;;;;;;;;;;;;;;;-0.90;87.93;102796.28;10421351;28;19925;-67
2023/02/26 23:44:21;;;;;;;;;;;;;;;-0.71;86.81;102791.53;10420782;28;19997;-67
2023/02/26 23:49:24;;;;;;;;;;;;;;;-0.66;86.91;102787.34;10386650;28;19925;-67
2023/02/26 23:54:26;;;;;;;;;;;;;;;-0.43;87.37;102783.56;10420625;28;19926;-67
2023/02/26 23:59:28;;;;;;;;;;;;;;;-0.85;88.35;102786.97;10415449;28;19925;-67
